sensor_id;sensor_type;location;lat;lon;timestamp;temperature;humidity
40816;DHT22;26535;48.788;9.214;2023-04-26T05:01:18;5.40;99.90
40816;DHT22;26535;48.788;9.214;2023-04-26T05:03:49;5.50;99.90
40816;DHT22;26535;48.788;9.214;2023-04-26T05:06:14;5.60;99.90
40816;DHT22;26535;48.788;9.214;2023-04-26T05:08:40;5.60;99.90
40816;DHT22;26535;48.788;9.214;2023-04-26T05:11:07;5.70;99.90
40816;DHT22;26535;48.788;9.214;2023-04-26T05:13:33;5.80;99.90
40816;DHT22;26535;48.788;9.214;2023-04-26T05:15:59;5.90;99.90
40816;DHT22;26535;48.788;9.214;2023-04-26T05:18:24;6.00;99.90
40816;DHT22;26535;48.788;9.214;2023-04-26T05:20:50;6.20;99.90
40816;DHT22;26535;48.788;9.214;2023-04-26T05:23:16;6.30;99.90
40816;DHT22;26535;48.788;9.214;2023-04-26T05:25:42;6.40;99.90
40816;DHT22;26535;48.788;9.214;2023-04-26T05:28:27;6.50;99.90
40816;DHT22;26535;48.788;9.214;2023-04-26T05:31:16;6.60;99.90
40816;DHT22;26535;48.788;9.214;2023-04-26T05:33:57;6.70;99.90
40816;DHT22;26535;48.788;9.214;2023-04-26T05:36:28;6.80;99.90
40816;DHT22;26535;48.788;9.214;2023-04-26T05:38:54;6.80;99.90
40816;DHT22;26535;48.788;9.214;2023-04-26T05:41:20;6.90;99.90
40816;DHT22;26535;48.788;9.214;2023-04-26T05:43:46;6.90;99.90
40816;DHT22;26535;48.788;9.214;2023-04-26T05:46:12;7.00;99.90
40816;DHT22;26535;48.788;9.214;2023-04-26T05:48:39;7.10;99.90
40816;DHT22;26535;48.788;9.214;2023-04-26T05:51:05;7.10;99.90
40816;DHT22;26535;48.788;9.214;2023-04-26T05:53:31;7.10;99.90
40816;DHT22;26535;48.788;9.214;2023-04-26T05:55:58;7.10;99.90
40816;DHT22;26535;48.788;9.214;2023-04-26T05:58:24;7.20;99.90
40816;DHT22;26535;48.788;9.214;2023-04-26T06:00:50;7.30;99.90
40816;DHT22;26535;48.788;9.214;2023-04-26T06:03:16;7.40;99.90
40816;DHT22;26535;48.788;9.214;2023-04-26T06:05:43;7.50;99.90
40816;DHT22;26535;48.788;9.214;2023-04-26T06:08:09;7.60;99.90
40816;DHT22;26535;48.788;9.214;2023-04-26T06:10:35;7.70;99.90
40816;DHT22;26535;48.788;9.214;2023-04-26T06:13:05;7.90;99.90
40816;DHT22;26535;48.788;9.214;2023-04-26T06:15:34;8.00;99.90
40816;DHT22;26535;48.788;9.214;2023-04-26T06:18:00;8.30;99.90
40816;DHT22;26535;48.788;9.214;2023-04-26T06:20:25;8.50;99.90
40816;DHT22;26535;48.788;9.214;2023-04-26T06:22:52;8.60;99.90
40816;DHT22;26535;48.788;9.214;2023-04-26T06:25:18;8.70;99.90
40816;DHT22;26535;48.788;9.214;2023-04-26T06:27:44;8.80;99.90
40816;DHT22;26535;48.788;9.214;2023-04-26T06:30:10;8.90;99.90
40816;DHT22;26535;48.788;9.214;2023-04-26T06:32:40;9.00;99.90
40816;DHT22;26535;48.788;9.214;2023-04-26T06:35:06;9.00;99.90
40816;DHT22;26535;48.788;9.214;2023-04-26T06:37:32;9.00;99.90
40816;DHT22;26535;48.788;9.214;2023-04-26T06:39:58;9.00;99.90
40816;DHT22;26535;48.788;9.214;2023-04-26T06:42:24;9.00;99.90
40816;DHT22;26535;48.788;9.214;2023-04-26T06:45:06;9.00;99.90
40816;DHT22;26535;48.788;9.214;2023-04-26T06:47:33;8.90;99.90
40816;DHT22;26535;48.788;9.214;2023-04-26T06:49:59;9.00;99.90
40816;DHT22;26535;48.788;9.214;2023-04-26T06:52:25;9.10;99.90
40816;DHT22;26535;48.788;9.214;2023-04-26T06:54:51;9.20;99.90
40816;DHT22;26535;48.788;9.214;2023-04-26T06:57:16;9.20;99.90
40816;DHT22;26535;48.788;9.214;2023-04-26T06:59:42;9.40;99.90
40816;DHT22;26535;48.788;9.214;2023-04-26T07:02:08;9.40;99.90
40816;DHT22;26535;48.788;9.214;2023-04-26T07:04:34;9.50;99.30
40816;DHT22;26535;48.788;9.214;2023-04-26T07:06:59;9.50;98.70
40816;DHT22;26535;48.788;9.214;2023-04-26T07:09:25;9.40;98.40
40816;DHT22;26535;48.788;9.214;2023-04-26T07:11:51;9.30;98.30
40816;DHT22;26535;48.788;9.214;2023-04-26T07:14:17;9.30;98.80
40816;DHT22;26535;48.788;9.214;2023-04-26T07:16:43;9.30;98.40
40816;DHT22;26535;48.788;9.214;2023-04-26T07:19:09;9.30;98.40
40816;DHT22;26535;48.788;9.214;2023-04-26T07:21:35;9.40;98.20
40816;DHT22;26535;48.788;9.214;2023-04-26T07:24:01;9.50;98.30
40816;DHT22;26535;48.788;9.214;2023-04-26T07:26:27;9.70;98.20
40816;DHT22;26535;48.788;9.214;2023-04-26T07:28:53;9.90;96.90
40816;DHT22;26535;48.788;9.214;2023-04-26T07:31:19;10.10;95.60
40816;DHT22;26535;48.788;9.214;2023-04-26T07:33:45;10.10;95.10
40816;DHT22;26535;48.788;9.214;2023-04-26T07:36:10;10.20;95.10
40816;DHT22;26535;48.788;9.214;2023-04-26T07:38:36;9.90;95.20
40816;DHT22;26535;48.788;9.214;2023-04-26T07:41:02;9.80;94.90
40816;DHT22;26535;48.788;9.214;2023-04-26T07:43:29;9.60;95.30
40816;DHT22;26535;48.788;9.214;2023-04-26T07:45:59;9.60;95.80
40816;DHT22;26535;48.788;9.214;2023-04-26T07:48:25;9.60;96.00
40816;DHT22;26535;48.788;9.214;2023-04-26T07:50:51;9.70;96.60
40816;DHT22;26535;48.788;9.214;2023-04-26T07:53:17;10.00;95.60
40816;DHT22;26535;48.788;9.214;2023-04-26T07:55:42;10.20;94.50
40816;DHT22;26535;48.788;9.214;2023-04-26T07:58:08;10.30;93.90
40816;DHT22;26535;48.788;9.214;2023-04-26T08:00:36;10.60;94.20
40816;DHT22;26535;48.788;9.214;2023-04-26T08:03:03;10.80;93.50
40816;DHT22;26535;48.788;9.214;2023-04-26T08:05:29;11.00;91.70
40816;DHT22;26535;48.788;9.214;2023-04-26T08:07:55;11.00;91.40
40816;DHT22;26535;48.788;9.214;2023-04-26T08:10:21;11.20;90.90
40816;DHT22;26535;48.788;9.214;2023-04-26T08:12:46;11.10;90.70
40816;DHT22;26535;48.788;9.214;2023-04-26T08:15:12;10.90;90.80
40816;DHT22;26535;48.788;9.214;2023-04-26T08:17:38;11.00;91.20
40816;DHT22;26535;48.788;9.214;2023-04-26T08:20:04;11.20;91.40
40816;DHT22;26535;48.788;9.214;2023-04-26T08:22:30;11.40;90.80
40816;DHT22;26535;48.788;9.214;2023-04-26T08:24:56;11.30;90.40
40816;DHT22;26535;48.788;9.214;2023-04-26T08:27:21;11.40;90.60
40816;DHT22;26535;48.788;9.214;2023-04-26T08:29:48;11.40;90.80
40816;DHT22;26535;48.788;9.214;2023-04-26T08:32:13;11.40;89.60
40816;DHT22;26535;48.788;9.214;2023-04-26T08:34:39;11.50;89.60
40816;DHT22;26535;48.788;9.214;2023-04-26T08:37:09;11.80;89.50
40816;DHT22;26535;48.788;9.214;2023-04-26T08:39:34;12.20;88.50
40816;DHT22;26535;48.788;9.214;2023-04-26T08:42:13;12.40;87.30
40816;DHT22;26535;48.788;9.214;2023-04-26T08:44:41;12.70;87.30
40816;DHT22;26535;48.788;9.214;2023-04-26T08:47:18;13.00;86.50
40816;DHT22;26535;48.788;9.214;2023-04-26T08:49:52;12.80;84.80
40816;DHT22;26535;48.788;9.214;2023-04-26T08:52:26;12.70;85.50
40816;DHT22;26535;48.788;9.214;2023-04-26T08:54:53;12.90;84.50
40816;DHT22;26535;48.788;9.214;2023-04-26T08:57:20;12.90;84.80
40816;DHT22;26535;48.788;9.214;2023-04-26T08:59:46;12.70;84.50
40816;DHT22;26535;48.788;9.214;2023-04-26T09:02:20;12.60;84.80
40816;DHT22;26535;48.788;9.214;2023-04-26T09:04:46;12.20;85.20
40816;DHT22;26535;48.788;9.214;2023-04-26T09:07:31;12.20;86.20
40816;DHT22;26535;48.788;9.214;2023-04-26T09:09:58;12.40;84.80
40816;DHT22;26535;48.788;9.214;2023-04-26T09:12:25;12.60;85.60
40816;DHT22;26535;48.788;9.214;2023-04-26T09:14:51;12.80;84.90
40816;DHT22;26535;48.788;9.214;2023-04-26T09:17:31;13.00;82.80
40816;DHT22;26535;48.788;9.214;2023-04-26T09:19:59;13.10;84.60
40816;DHT22;26535;48.788;9.214;2023-04-26T09:22:34;13.10;84.70
40816;DHT22;26535;48.788;9.214;2023-04-26T09:25:02;13.00;84.30
40816;DHT22;26535;48.788;9.214;2023-04-26T09:27:32;12.90;83.80
40816;DHT22;26535;48.788;9.214;2023-04-26T09:32:56;12.80;83.80
40816;DHT22;26535;48.788;9.214;2023-04-26T09:35:27;12.90;84.70
40816;DHT22;26535;48.788;9.214;2023-04-26T09:40:30;13.20;84.10
40816;DHT22;26535;48.788;9.214;2023-04-26T09:43:00;13.30;84.60
40816;DHT22;26535;48.788;9.214;2023-04-26T09:45:27;13.30;84.40
40816;DHT22;26535;48.788;9.214;2023-04-26T09:47:53;13.40;82.40
40816;DHT22;26535;48.788;9.214;2023-04-26T09:50:29;13.50;82.00
40816;DHT22;26535;48.788;9.214;2023-04-26T09:52:56;13.60;81.50
40816;DHT22;26535;48.788;9.214;2023-04-26T09:55:25;13.60;80.90
40816;DHT22;26535;48.788;9.214;2023-04-26T09:57:53;13.70;81.30
40816;DHT22;26535;48.788;9.214;2023-04-26T10:00:19;13.70;81.20
40816;DHT22;26535;48.788;9.214;2023-04-26T10:02:45;13.50;80.60
40816;DHT22;26535;48.788;9.214;2023-04-26T10:05:11;13.70;80.60
40816;DHT22;26535;48.788;9.214;2023-04-26T10:07:38;13.80;80.10
40816;DHT22;26535;48.788;9.214;2023-04-26T10:10:06;13.60;80.00
40816;DHT22;26535;48.788;9.214;2023-04-26T10:12:33;13.60;80.50
40816;DHT22;26535;48.788;9.214;2023-04-26T10:14:59;13.70;80.10
40816;DHT22;26535;48.788;9.214;2023-04-26T10:17:25;14.00;80.80
40816;DHT22;26535;48.788;9.214;2023-04-26T10:19:55;14.30;78.60
40816;DHT22;26535;48.788;9.214;2023-04-26T10:22:28;14.40;79.70
40816;DHT22;26535;48.788;9.214;2023-04-26T10:24:55;14.40;78.40
40816;DHT22;26535;48.788;9.214;2023-04-26T10:30:14;14.80;79.40
40816;DHT22;26535;48.788;9.214;2023-04-26T10:35:26;14.90;76.60
40816;DHT22;26535;48.788;9.214;2023-04-26T10:40:37;15.70;75.70
40816;DHT22;26535;48.788;9.214;2023-04-26T10:45:47;16.20;73.70
40816;DHT22;26535;48.788;9.214;2023-04-26T10:53:25;15.80;72.80
40816;DHT22;26535;48.788;9.214;2023-04-26T10:55:51;16.00;72.10
40816;DHT22;26535;48.788;9.214;2023-04-26T10:58:30;16.30;74.40
40816;DHT22;26535;48.788;9.214;2023-04-26T11:01:16;16.10;71.30
40816;DHT22;26535;48.788;9.214;2023-04-26T11:04:04;16.00;69.80
40816;DHT22;26535;48.788;9.214;2023-04-26T11:06:52;16.00;70.50
40816;DHT22;26535;48.788;9.214;2023-04-26T11:09:34;16.10;71.00
40816;DHT22;26535;48.788;9.214;2023-04-26T11:12:04;16.30;70.60
40816;DHT22;26535;48.788;9.214;2023-04-26T11:14:34;16.50;69.80
40816;DHT22;26535;48.788;9.214;2023-04-26T11:17:07;16.70;69.70
40816;DHT22;26535;48.788;9.214;2023-04-26T11:19:33;16.80;70.70
40816;DHT22;26535;48.788;9.214;2023-04-26T11:22:00;16.50;67.90
40816;DHT22;26535;48.788;9.214;2023-04-26T11:24:27;16.50;69.50
40816;DHT22;26535;48.788;9.214;2023-04-26T11:26:53;17.20;69.10
40816;DHT22;26535;48.788;9.214;2023-04-26T11:29:19;17.90;68.70
40816;DHT22;26535;48.788;9.214;2023-04-26T11:31:56;18.00;67.30
40816;DHT22;26535;48.788;9.214;2023-04-26T11:34:34;17.70;68.00
40816;DHT22;26535;48.788;9.214;2023-04-26T11:37:04;17.70;68.20
40816;DHT22;26535;48.788;9.214;2023-04-26T11:39:31;17.90;67.40
40816;DHT22;26535;48.788;9.214;2023-04-26T11:42:08;18.10;66.90
40816;DHT22;26535;48.788;9.214;2023-04-26T11:44:36;18.40;65.50
40816;DHT22;26535;48.788;9.214;2023-04-26T11:47:03;19.30;64.60
40816;DHT22;26535;48.788;9.214;2023-04-26T11:49:30;19.80;62.20
40816;DHT22;26535;48.788;9.214;2023-04-26T11:51:56;19.20;62.60
40816;DHT22;26535;48.788;9.214;2023-04-26T11:54:27;20.20;60.80
40816;DHT22;26535;48.788;9.214;2023-04-26T11:56:53;21.50;62.50
40816;DHT22;26535;48.788;9.214;2023-04-26T11:59:26;23.10;59.10
40816;DHT22;26535;48.788;9.214;2023-04-26T12:01:54;23.60;55.50
40816;DHT22;26535;48.788;9.214;2023-04-26T12:04:26;23.30;59.00
40816;DHT22;26535;48.788;9.214;2023-04-26T12:06:54;23.40;55.90
40816;DHT22;26535;48.788;9.214;2023-04-26T12:09:23;23.50;55.50
40816;DHT22;26535;48.788;9.214;2023-04-26T12:12:01;24.80;54.70
40816;DHT22;26535;48.788;9.214;2023-04-26T12:16:58;24.60;52.80
40816;DHT22;26535;48.788;9.214;2023-04-26T12:19:26;24.00;52.90
40816;DHT22;26535;48.788;9.214;2023-04-26T12:21:52;23.50;53.10
40816;DHT22;26535;48.788;9.214;2023-04-26T12:24:27;23.70;53.60
40816;DHT22;26535;48.788;9.214;2023-04-26T12:26:59;24.30;53.40
40816;DHT22;26535;48.788;9.214;2023-04-26T12:29:25;25.60;52.10
40816;DHT22;26535;48.788;9.214;2023-04-26T12:31:53;25.50;50.30
40816;DHT22;26535;48.788;9.214;2023-04-26T12:34:18;26.20;49.60
40816;DHT22;26535;48.788;9.214;2023-04-26T12:36:44;26.60;48.40
40816;DHT22;26535;48.788;9.214;2023-04-26T12:39:11;26.70;51.10
40816;DHT22;26535;48.788;9.214;2023-04-26T12:41:39;26.90;50.30
40816;DHT22;26535;48.788;9.214;2023-04-26T12:44:06;25.90;48.40
40816;DHT22;26535;48.788;9.214;2023-04-26T12:46:32;25.20;50.30
40816;DHT22;26535;48.788;9.214;2023-04-26T12:48:57;24.00;49.60
40816;DHT22;26535;48.788;9.214;2023-04-26T12:51:23;23.40;51.80
40816;DHT22;26535;48.788;9.214;2023-04-26T12:53:49;23.60;51.90
40816;DHT22;26535;48.788;9.214;2023-04-26T12:56:15;24.30;50.90
40816;DHT22;26535;48.788;9.214;2023-04-26T12:58:41;25.80;49.50
40816;DHT22;26535;48.788;9.214;2023-04-26T13:01:08;26.50;48.90
40816;DHT22;26535;48.788;9.214;2023-04-26T13:03:33;26.00;47.60
40816;DHT22;26535;48.788;9.214;2023-04-26T13:05:59;25.70;49.30
40816;DHT22;26535;48.788;9.214;2023-04-26T13:08:25;26.80;49.90
40816;DHT22;26535;48.788;9.214;2023-04-26T13:10:51;28.60;49.40
40816;DHT22;26535;48.788;9.214;2023-04-26T13:13:16;28.50;45.90
40816;DHT22;26535;48.788;9.214;2023-04-26T13:15:42;27.00;48.40
40816;DHT22;26535;48.788;9.214;2023-04-26T13:18:08;26.60;48.50
40816;DHT22;26535;48.788;9.214;2023-04-26T13:20:34;26.70;47.30
40816;DHT22;26535;48.788;9.214;2023-04-26T13:23:00;27.00;48.10
40816;DHT22;26535;48.788;9.214;2023-04-26T13:25:26;28.80;46.30
40816;DHT22;26535;48.788;9.214;2023-04-26T13:27:52;29.30;45.00
40816;DHT22;26535;48.788;9.214;2023-04-26T13:30:19;28.80;46.00
40816;DHT22;26535;48.788;9.214;2023-04-26T13:32:44;27.70;46.30
40816;DHT22;26535;48.788;9.214;2023-04-26T13:35:10;28.90;45.90
40816;DHT22;26535;48.788;9.214;2023-04-26T13:37:37;29.80;46.80
40816;DHT22;26535;48.788;9.214;2023-04-26T13:40:03;30.00;44.80
40816;DHT22;26535;48.788;9.214;2023-04-26T13:42:29;28.80;44.60
40816;DHT22;26535;48.788;9.214;2023-04-26T13:44:55;27.50;45.10
40816;DHT22;26535;48.788;9.214;2023-04-26T13:47:20;26.40;46.40
40816;DHT22;26535;48.788;9.214;2023-04-26T13:49:46;26.80;48.10
40816;DHT22;26535;48.788;9.214;2023-04-26T13:52:12;27.80;46.00
40816;DHT22;26535;48.788;9.214;2023-04-26T13:54:38;28.60;46.10
40816;DHT22;26535;48.788;9.214;2023-04-26T13:57:07;28.80;44.50
40816;DHT22;26535;48.788;9.214;2023-04-26T13:59:33;27.60;45.10
40816;DHT22;26535;48.788;9.214;2023-04-26T14:01:58;26.80;46.30
40816;DHT22;26535;48.788;9.214;2023-04-26T14:04:24;27.90;46.10
40816;DHT22;26535;48.788;9.214;2023-04-26T14:06:51;27.80;45.60
40816;DHT22;26535;48.788;9.214;2023-04-26T14:09:17;27.60;45.50
40816;DHT22;26535;48.788;9.214;2023-04-26T14:11:43;27.80;48.40
40816;DHT22;26535;48.788;9.214;2023-04-26T14:14:09;28.00;45.30
40816;DHT22;26535;48.788;9.214;2023-04-26T14:16:35;27.60;45.70
40816;DHT22;26535;48.788;9.214;2023-04-26T14:19:01;28.10;45.60
40816;DHT22;26535;48.788;9.214;2023-04-26T14:21:26;28.70;46.20
40816;DHT22;26535;48.788;9.214;2023-04-26T14:23:54;29.90;46.80
40816;DHT22;26535;48.788;9.214;2023-04-26T14:26:20;30.80;44.00
40816;DHT22;26535;48.788;9.214;2023-04-26T14:28:50;31.50;43.10
40816;DHT22;26535;48.788;9.214;2023-04-26T14:31:16;32.20;43.00
40816;DHT22;26535;48.788;9.214;2023-04-26T14:33:43;32.20;42.40
40816;DHT22;26535;48.788;9.214;2023-04-26T14:36:09;31.80;42.10
40816;DHT22;26535;48.788;9.214;2023-04-26T14:38:35;31.40;43.10
40816;DHT22;26535;48.788;9.214;2023-04-26T14:41:02;33.20;41.80
40816;DHT22;26535;48.788;9.214;2023-04-26T14:43:28;32.80;41.00
40816;DHT22;26535;48.788;9.214;2023-04-26T14:45:54;32.90;40.80
40816;DHT22;26535;48.788;9.214;2023-04-26T14:48:19;33.10;43.50
40816;DHT22;26535;48.788;9.214;2023-04-26T14:50:45;32.20;41.50
40816;DHT22;26535;48.788;9.214;2023-04-26T14:53:11;31.40;42.30
40816;DHT22;26535;48.788;9.214;2023-04-26T14:55:37;31.10;43.10
40816;DHT22;26535;48.788;9.214;2023-04-26T14:58:03;31.50;42.40
40816;DHT22;26535;48.788;9.214;2023-04-26T15:00:28;31.10;42.30
40816;DHT22;26535;48.788;9.214;2023-04-26T15:02:55;31.50;42.50
40816;DHT22;26535;48.788;9.214;2023-04-26T15:05:21;32.50;43.40
40816;DHT22;26535;48.788;9.214;2023-04-26T15:07:48;33.40;40.60
40816;DHT22;26535;48.788;9.214;2023-04-26T15:10:14;33.40;40.60
40816;DHT22;26535;48.788;9.214;2023-04-26T15:12:39;31.90;41.20
40816;DHT22;26535;48.788;9.214;2023-04-26T15:15:06;30.80;41.80
40816;DHT22;26535;48.788;9.214;2023-04-26T15:17:32;30.50;43.30
40816;DHT22;26535;48.788;9.214;2023-04-26T15:19:59;29.60;43.10
40816;DHT22;26535;48.788;9.214;2023-04-26T15:22:25;28.90;43.50
40816;DHT22;26535;48.788;9.214;2023-04-26T15:24:51;28.10;43.50
40816;DHT22;26535;48.788;9.214;2023-04-26T15:27:17;26.50;44.70
40816;DHT22;26535;48.788;9.214;2023-04-26T15:29:43;25.50;46.00
40816;DHT22;26535;48.788;9.214;2023-04-26T15:32:09;24.40;47.20
40816;DHT22;26535;48.788;9.214;2023-04-26T15:34:39;25.10;48.10
40816;DHT22;26535;48.788;9.214;2023-04-26T15:37:05;27.30;45.20
40816;DHT22;26535;48.788;9.214;2023-04-26T15:39:31;28.90;45.50
40816;DHT22;26535;48.788;9.214;2023-04-26T15:41:56;30.40;43.10
40816;DHT22;26535;48.788;9.214;2023-04-26T15:44:23;30.80;42.10
40816;DHT22;26535;48.788;9.214;2023-04-26T15:46:49;31.60;41.50
40816;DHT22;26535;48.788;9.214;2023-04-26T15:49:14;32.00;43.50
40816;DHT22;26535;48.788;9.214;2023-04-26T15:51:40;33.00;41.20
40816;DHT22;26535;48.788;9.214;2023-04-26T15:54:06;33.30;41.40
40816;DHT22;26535;48.788;9.214;2023-04-26T15:56:32;32.90;41.70
40816;DHT22;26535;48.788;9.214;2023-04-26T15:58:57;32.40;40.90
40816;DHT22;26535;48.788;9.214;2023-04-26T16:01:23;32.80;41.40
40816;DHT22;26535;48.788;9.214;2023-04-26T16:03:49;32.40;41.70
40816;DHT22;26535;48.788;9.214;2023-04-26T16:06:15;32.20;41.20
40816;DHT22;26535;48.788;9.214;2023-04-26T16:08:41;32.30;40.70
40816;DHT22;26535;48.788;9.214;2023-04-26T16:11:06;30.90;41.30
40816;DHT22;26535;48.788;9.214;2023-04-26T16:13:32;28.40;42.90
40816;DHT22;26535;48.788;9.214;2023-04-26T16:15:58;26.40;45.50
40816;DHT22;26535;48.788;9.214;2023-04-26T16:18:24;24.80;47.10
40816;DHT22;26535;48.788;9.214;2023-04-26T16:20:50;24.40;47.10
40816;DHT22;26535;48.788;9.214;2023-04-26T16:23:16;24.30;46.80
40816;DHT22;26535;48.788;9.214;2023-04-26T16:25:42;23.20;48.70
40816;DHT22;26535;48.788;9.214;2023-04-26T16:28:08;22.30;49.20
40816;DHT22;26535;48.788;9.214;2023-04-26T16:30:37;21.40;52.80
40816;DHT22;26535;48.788;9.214;2023-04-26T16:33:03;20.80;51.20
40816;DHT22;26535;48.788;9.214;2023-04-26T16:35:34;20.30;53.00
40816;DHT22;26535;48.788;9.214;2023-04-26T16:38:01;19.80;52.70
40816;DHT22;26535;48.788;9.214;2023-04-26T16:40:27;19.70;53.40
40816;DHT22;26535;48.788;9.214;2023-04-26T16:42:53;20.00;54.20
40816;DHT22;26535;48.788;9.214;2023-04-26T16:45:18;20.00;54.50
40816;DHT22;26535;48.788;9.214;2023-04-26T16:47:44;19.90;53.60
40816;DHT22;26535;48.788;9.214;2023-04-26T16:50:10;20.60;53.30
40816;DHT22;26535;48.788;9.214;2023-04-26T16:52:36;21.40;52.90
40816;DHT22;26535;48.788;9.214;2023-04-26T16:55:02;21.60;53.60
40816;DHT22;26535;48.788;9.214;2023-04-26T16:57:28;21.30;51.20
40816;DHT22;26535;48.788;9.214;2023-04-26T16:59:54;20.70;51.50
40816;DHT22;26535;48.788;9.214;2023-04-26T17:02:20;19.90;53.50
40816;DHT22;26535;48.788;9.214;2023-04-26T17:04:45;19.10;54.60
40816;DHT22;26535;48.788;9.214;2023-04-26T17:07:11;18.80;56.60
40816;DHT22;26535;48.788;9.214;2023-04-26T17:09:38;18.60;55.70
40816;DHT22;26535;48.788;9.214;2023-04-26T17:12:04;18.10;56.20
40816;DHT22;26535;48.788;9.214;2023-04-26T17:14:31;17.80;57.50
40816;DHT22;26535;48.788;9.214;2023-04-26T17:16:57;17.60;58.60
40816;DHT22;26535;48.788;9.214;2023-04-26T17:19:23;17.20;57.90
40816;DHT22;26535;48.788;9.214;2023-04-26T17:21:49;16.80;58.50
40816;DHT22;26535;48.788;9.214;2023-04-26T17:24:14;16.50;59.50
40816;DHT22;26535;48.788;9.214;2023-04-26T17:26:42;16.30;60.60
40816;DHT22;26535;48.788;9.214;2023-04-26T17:29:08;16.30;60.50
40816;DHT22;26535;48.788;9.214;2023-04-26T17:31:33;16.30;61.10
40816;DHT22;26535;48.788;9.214;2023-04-26T17:33:59;16.10;61.00
40816;DHT22;26535;48.788;9.214;2023-04-26T17:36:25;15.90;60.60
40816;DHT22;26535;48.788;9.214;2023-04-26T17:38:51;15.70;60.80
40816;DHT22;26535;48.788;9.214;2023-04-26T17:41:16;15.40;61.60
40816;DHT22;26535;48.788;9.214;2023-04-26T17:43:45;15.10;63.00
40816;DHT22;26535;48.788;9.214;2023-04-26T17:46:11;15.00;63.20
40816;DHT22;26535;48.788;9.214;2023-04-26T17:48:38;15.20;63.40
40816;DHT22;26535;48.788;9.214;2023-04-26T17:51:04;15.10;62.90
40816;DHT22;26535;48.788;9.214;2023-04-26T17:53:30;15.10;64.20
40816;DHT22;26535;48.788;9.214;2023-04-26T17:55:56;15.20;63.80
40816;DHT22;26535;48.788;9.214;2023-04-26T17:58:22;15.30;63.40
40816;DHT22;26535;48.788;9.214;2023-04-26T18:00:48;15.20;63.40
40816;DHT22;26535;48.788;9.214;2023-04-26T18:03:14;15.10;64.50
40816;DHT22;26535;48.788;9.214;2023-04-26T18:05:40;14.90;64.10
40816;DHT22;26535;48.788;9.214;2023-04-26T18:08:05;14.90;65.20
40816;DHT22;26535;48.788;9.214;2023-04-26T18:10:32;14.70;65.80
40816;DHT22;26535;48.788;9.214;2023-04-26T18:12:57;14.50;66.10
40816;DHT22;26535;48.788;9.214;2023-04-26T18:15:23;14.40;66.00
40816;DHT22;26535;48.788;9.214;2023-04-26T18:17:49;14.20;66.70
40816;DHT22;26535;48.788;9.214;2023-04-26T18:20:15;14.00;66.60
40816;DHT22;26535;48.788;9.214;2023-04-26T18:22:41;13.90;66.00
40816;DHT22;26535;48.788;9.214;2023-04-26T18:25:07;13.80;66.90
40816;DHT22;26535;48.788;9.214;2023-04-26T18:27:33;13.80;69.10
40816;DHT22;26535;48.788;9.214;2023-04-26T18:29:59;13.60;68.30
40816;DHT22;26535;48.788;9.214;2023-04-26T18:32:24;13.50;67.20
40816;DHT22;26535;48.788;9.214;2023-04-26T18:34:50;13.40;67.50
40816;DHT22;26535;48.788;9.214;2023-04-26T18:37:16;13.30;68.40
40816;DHT22;26535;48.788;9.214;2023-04-26T18:39:42;13.30;68.50
40816;DHT22;26535;48.788;9.214;2023-04-26T18:42:08;13.20;68.60
40816;DHT22;26535;48.788;9.214;2023-04-26T18:44:34;13.00;69.20
40816;DHT22;26535;48.788;9.214;2023-04-26T18:47:00;13.00;70.70
40816;DHT22;26535;48.788;9.214;2023-04-26T18:49:26;12.90;70.60
40816;DHT22;26535;48.788;9.214;2023-04-26T18:51:52;12.90;71.60
40816;DHT22;26535;48.788;9.214;2023-04-26T18:54:18;12.90;70.60
40816;DHT22;26535;48.788;9.214;2023-04-26T18:56:43;12.80;70.60
40816;DHT22;26535;48.788;9.214;2023-04-26T18:59:09;12.80;71.00
40816;DHT22;26535;48.788;9.214;2023-04-26T19:01:35;12.80;70.70
40816;DHT22;26535;48.788;9.214;2023-04-26T19:04:01;12.80;71.60
40816;DHT22;26535;48.788;9.214;2023-04-26T19:06:28;12.80;72.10
40816;DHT22;26535;48.788;9.214;2023-04-26T19:08:53;12.80;72.00
40816;DHT22;26535;48.788;9.214;2023-04-26T19:11:20;12.70;71.60
40816;DHT22;26535;48.788;9.214;2023-04-26T19:13:45;12.70;71.80
40816;DHT22;26535;48.788;9.214;2023-04-26T19:16:11;12.80;72.10
40816;DHT22;26535;48.788;9.214;2023-04-26T19:18:37;12.80;72.30
40816;DHT22;26535;48.788;9.214;2023-04-26T19:21:06;12.80;71.40
40816;DHT22;26535;48.788;9.214;2023-04-26T19:23:33;12.80;71.20
40816;DHT22;26535;48.788;9.214;2023-04-26T19:26:06;12.80;71.40
40816;DHT22;26535;48.788;9.214;2023-04-26T19:28:33;12.90;70.80
40816;DHT22;26535;48.788;9.214;2023-04-26T19:30:59;12.90;71.60
40816;DHT22;26535;48.788;9.214;2023-04-26T19:33:26;12.90;70.30
40816;DHT22;26535;48.788;9.214;2023-04-26T19:35:52;12.80;71.50
40816;DHT22;26535;48.788;9.214;2023-04-26T19:38:18;12.80;72.10
40816;DHT22;26535;48.788;9.214;2023-04-26T19:40:44;12.80;69.70
40816;DHT22;26535;48.788;9.214;2023-04-26T19:43:10;12.80;71.30
40816;DHT22;26535;48.788;9.214;2023-04-26T19:45:36;12.80;71.20
40816;DHT22;26535;48.788;9.214;2023-04-26T19:48:06;12.70;70.80
40816;DHT22;26535;48.788;9.214;2023-04-26T19:50:41;12.70;72.10
40816;DHT22;26535;48.788;9.214;2023-04-26T19:53:08;12.70;72.40
40816;DHT22;26535;48.788;9.214;2023-04-26T19:55:35;12.60;72.80
40816;DHT22;26535;48.788;9.214;2023-04-26T19:58:01;12.50;71.60
40816;DHT22;26535;48.788;9.214;2023-04-26T20:00:27;12.50;73.00
40816;DHT22;26535;48.788;9.214;2023-04-26T20:02:55;12.50;73.80
40816;DHT22;26535;48.788;9.214;2023-04-26T20:05:21;12.40;74.60
40816;DHT22;26535;48.788;9.214;2023-04-26T20:07:47;12.30;75.40
40816;DHT22;26535;48.788;9.214;2023-04-26T20:10:13;12.20;74.20
40816;DHT22;26535;48.788;9.214;2023-04-26T20:12:39;12.10;74.50
40816;DHT22;26535;48.788;9.214;2023-04-26T20:15:07;12.00;75.70
40816;DHT22;26535;48.788;9.214;2023-04-26T20:17:33;12.10;75.80
40816;DHT22;26535;48.788;9.214;2023-04-26T20:19:59;12.00;74.50
40816;DHT22;26535;48.788;9.214;2023-04-26T20:22:25;11.90;75.20
40816;DHT22;26535;48.788;9.214;2023-04-26T20:24:50;11.90;77.00
40816;DHT22;26535;48.788;9.214;2023-04-26T20:27:17;12.00;77.30
40816;DHT22;26535;48.788;9.214;2023-04-26T20:29:45;11.90;75.00
40816;DHT22;26535;48.788;9.214;2023-04-26T20:32:11;11.80;75.20
40816;DHT22;26535;48.788;9.214;2023-04-26T20:34:37;11.80;76.10
40816;DHT22;26535;48.788;9.214;2023-04-26T20:37:02;11.80;76.50
40816;DHT22;26535;48.788;9.214;2023-04-26T20:39:28;11.80;77.50
40816;DHT22;26535;48.788;9.214;2023-04-26T20:42:00;11.80;77.90
40816;DHT22;26535;48.788;9.214;2023-04-26T20:44:26;11.70;78.00
40816;DHT22;26535;48.788;9.214;2023-04-26T20:46:52;11.70;78.60
40816;DHT22;26535;48.788;9.214;2023-04-26T20:49:18;11.60;77.30
40816;DHT22;26535;48.788;9.214;2023-04-26T20:51:44;11.60;77.50
40816;DHT22;26535;48.788;9.214;2023-04-26T20:54:10;11.50;78.40
40816;DHT22;26535;48.788;9.214;2023-04-26T20:56:36;11.50;79.30